createdAt,value
2019-03-22T00:00:37.093Z,38.55
2019-03-22T00:03:08.675Z,39.48
2019-03-22T00:05:40.207Z,37.70
2019-03-22T00:08:11.714Z,41.95
2019-03-22T00:10:43.241Z,40.70
2019-03-22T00:13:14.839Z,41.00
2019-03-22T00:15:46.430Z,42.40
2019-03-22T00:18:18.029Z,45.88
2019-03-22T00:20:49.549Z,41.23
2019-03-22T00:23:21.078Z,41.55
2019-03-22T00:25:52.605Z,41.48
2019-03-22T00:28:24.113Z,42.45
2019-03-22T00:30:55.634Z,42.70
2019-03-22T00:33:27.234Z,41.10
2019-03-22T00:35:58.760Z,44.83
2019-03-22T00:38:30.280Z,46.05
2019-03-22T00:41:01.801Z,42.65
2019-03-22T00:43:33.329Z,40.15
2019-03-22T00:46:04.933Z,43.65
2019-03-22T00:48:36.458Z,40.88
2019-03-22T00:51:07.960Z,42.50
2019-03-22T00:53:39.483Z,43.00
2019-03-22T00:56:11.001Z,37.25
2019-03-22T00:58:42.594Z,47.67
2019-03-22T01:01:15.189Z,44.85
2019-03-22T01:03:46.715Z,39.13
2019-03-22T01:06:18.314Z,41.83
2019-03-22T01:08:49.846Z,40.83
2019-03-22T01:11:21.442Z,44.45
2019-03-22T01:13:52.976Z,42.08
2019-03-22T01:16:24.496Z,41.73
2019-03-22T01:18:56.026Z,48.90
2019-03-22T01:21:27.544Z,41.75
2019-03-22T01:24:00.044Z,45.43
2019-03-22T01:26:31.858Z,47.15
2019-03-22T01:29:03.429Z,45.17
2019-03-22T01:31:34.955Z,42.80
2019-03-22T01:34:06.480Z,44.80
2019-03-22T01:36:38.070Z,43.30
2019-03-22T01:39:09.571Z,46.37
2019-03-22T01:41:41.102Z,47.35
2019-03-22T01:44:12.601Z,47.58
2019-03-22T01:46:44.119Z,44.83
2019-03-22T01:49:15.629Z,36.45
2019-03-22T01:51:47.150Z,37.78
2019-03-22T01:54:18.684Z,45.90
2019-03-22T01:56:50.255Z,48.70
2019-03-22T01:59:21.838Z,39.20
2019-03-22T02:01:53.354Z,39.33
2019-03-22T02:04:24.897Z,40.40
2019-03-22T02:06:56.396Z,48.45
2019-03-22T02:09:27.963Z,49.90
2019-03-22T02:11:59.489Z,45.63
2019-03-22T02:14:31.121Z,47.27
2019-03-22T02:17:02.639Z,40.78
2019-03-22T02:19:35.228Z,44.50
2019-03-22T02:22:06.750Z,45.53
2019-03-22T02:24:38.267Z,47.03
2019-03-22T02:27:09.864Z,43.40
2019-03-22T02:29:41.366Z,40.55
2019-03-22T02:32:12.856Z,46.25
2019-03-22T02:34:44.410Z,45.90
2019-03-22T02:37:16.058Z,39.78
2019-03-22T02:39:47.731Z,41.20
2019-03-22T02:42:20.394Z,50.48
2019-03-22T02:44:51.913Z,44.25
2019-03-22T02:47:23.440Z,43.27
2019-03-22T02:49:54.949Z,45.55
2019-03-22T02:52:26.542Z,48.15
2019-03-22T02:54:58.059Z,48.55
2019-03-22T02:57:29.594Z,45.63
2019-03-22T03:00:01.121Z,47.62
2019-03-22T03:02:33.018Z,34.10
2019-03-22T03:05:07.616Z,40.95
2019-03-22T03:07:39.189Z,40.52
2019-03-22T03:10:13.807Z,46.05
2019-03-22T03:12:45.439Z,40.58
2019-03-22T03:15:20.415Z,47.17
2019-03-22T03:17:51.948Z,33.23
2019-03-22T03:20:23.472Z,44.90
2019-03-22T03:22:55.000Z,45.88
2019-03-22T03:25:26.571Z,38.75
2019-03-22T03:27:58.107Z,41.68
2019-03-22T03:30:29.643Z,40.07
2019-03-22T03:33:01.236Z,44.48
2019-03-22T03:35:32.828Z,47.95
2019-03-22T03:38:04.407Z,45.70
2019-03-22T03:40:36.010Z,34.67
2019-03-22T03:43:07.513Z,45.15
2019-03-22T03:45:39.109Z,40.70
2019-03-22T03:48:11.281Z,41.68
2019-03-22T03:50:42.783Z,39.17
2019-03-22T03:53:14.312Z,42.50
2019-03-22T03:55:45.844Z,42.65
2019-03-22T03:58:17.351Z,41.10
2019-03-22T04:00:48.953Z,39.45
2019-03-22T04:03:20.499Z,35.10
2019-03-22T04:05:52.080Z,40.73
2019-03-22T04:08:23.607Z,42.83
2019-03-22T04:10:55.115Z,43.92
2019-03-22T04:13:26.641Z,39.73
2019-03-22T04:15:58.170Z,42.80
2019-03-22T04:18:29.750Z,42.33
2019-03-22T04:21:01.325Z,39.83
2019-03-22T04:23:32.852Z,38.28
2019-03-22T04:26:04.370Z,44.50
2019-03-22T04:28:35.872Z,39.78
2019-03-22T04:31:07.395Z,41.48
2019-03-22T04:33:38.923Z,37.13
2019-03-22T04:36:10.459Z,40.15
2019-03-22T04:38:41.988Z,44.85
2019-03-22T04:41:13.488Z,41.25
2019-03-22T04:43:45.961Z,40.33
2019-03-22T04:46:17.463Z,42.30
2019-03-22T04:48:48.993Z,44.20
2019-03-22T04:51:20.508Z,39.92
2019-03-22T04:53:52.605Z,42.37
2019-03-22T04:56:24.143Z,40.67
2019-03-22T04:58:55.641Z,42.80
2019-03-22T05:01:27.149Z,40.92
2019-03-22T05:03:59.154Z,40.27
2019-03-22T05:06:30.848Z,39.55
2019-03-22T05:09:02.430Z,38.48
2019-03-22T05:11:34.013Z,36.38
2019-03-22T05:14:05.544Z,39.20
2019-03-22T05:16:37.936Z,41.03
2019-03-22T05:19:09.443Z,40.08
2019-03-22T05:21:40.965Z,34.92
2019-03-22T05:24:12.559Z,39.63
2019-03-22T05:26:44.078Z,42.25
2019-03-22T05:29:15.596Z,32.67
2019-03-22T05:32:06.023Z,42.95
2019-03-22T05:34:37.609Z,33.85
2019-03-22T05:37:09.128Z,35.25
2019-03-22T05:39:40.653Z,37.45
2019-03-22T05:42:12.181Z,34.53
2019-03-22T05:44:43.772Z,34.55
2019-03-22T05:47:15.350Z,40.40
2019-03-22T05:49:46.860Z,37.23
2019-03-22T05:52:18.378Z,45.12
2019-03-22T05:54:49.978Z,35.60
2019-03-22T05:57:21.511Z,35.20
2019-03-22T05:59:53.138Z,39.63
2019-03-22T06:02:24.641Z,39.70
2019-03-22T06:04:56.175Z,39.98
2019-03-22T06:07:27.700Z,35.48
2019-03-22T06:09:59.206Z,38.38
2019-03-22T06:12:30.710Z,38.70
2019-03-22T06:15:02.247Z,39.73
2019-03-22T06:17:33.853Z,36.93
2019-03-22T06:20:06.991Z,40.90
2019-03-22T06:22:38.534Z,36.53
2019-03-22T06:25:10.058Z,36.58
2019-03-22T06:27:41.535Z,43.63
2019-03-22T06:30:13.057Z,41.80
2019-03-22T06:32:44.592Z,41.45
2019-03-22T06:35:16.116Z,41.75
2019-03-22T06:37:47.702Z,34.50
2019-03-22T06:40:19.247Z,43.17
2019-03-22T06:42:50.833Z,49.33
2019-03-22T06:45:22.337Z,42.60
2019-03-22T06:47:53.916Z,35.48
2019-03-22T06:50:25.553Z,41.05
2019-03-22T06:52:57.137Z,41.53
2019-03-22T06:55:28.668Z,32.40
2019-03-22T06:58:00.183Z,42.65
2019-03-22T07:00:31.768Z,39.40
2019-03-22T07:03:03.270Z,36.25
2019-03-22T07:05:37.965Z,34.92
2019-03-22T07:08:09.535Z,41.60
2019-03-22T07:10:41.063Z,38.38
2019-03-22T07:13:12.658Z,41.40
2019-03-22T07:15:44.181Z,37.63
2019-03-22T07:18:15.689Z,42.25
2019-03-22T07:20:47.279Z,39.27
2019-03-22T07:23:18.807Z,38.02
2019-03-22T07:25:50.312Z,38.80
2019-03-22T07:28:21.830Z,39.90
2019-03-22T07:30:53.362Z,32.88
2019-03-22T07:33:24.895Z,41.63
2019-03-22T07:35:56.498Z,34.85
2019-03-22T07:38:28.148Z,35.15
2019-03-22T07:41:00.618Z,33.95
2019-03-22T07:43:33.410Z,40.12
2019-03-22T07:46:06.595Z,38.92
2019-03-22T07:48:38.109Z,39.08
2019-03-22T07:51:10.712Z,37.15
2019-03-22T07:53:42.230Z,31.37
2019-03-22T07:56:13.825Z,34.35
2019-03-22T07:58:45.343Z,32.88
2019-03-22T08:01:16.863Z,33.98
2019-03-22T08:03:48.383Z,30.20
2019-03-22T08:06:19.905Z,31.73
2019-03-22T08:08:51.414Z,29.77
2019-03-22T08:11:24.787Z,42.45
2019-03-22T08:13:56.149Z,34.40
2019-03-22T08:16:27.650Z,33.45
2019-03-22T08:18:59.248Z,30.27
2019-03-22T08:21:30.831Z,31.50
2019-03-22T08:24:02.404Z,29.67
2019-03-22T08:26:34.053Z,30.77
2019-03-22T08:29:05.599Z,31.25
2019-03-22T08:31:37.110Z,36.20
2019-03-22T08:34:08.620Z,29.95
2019-03-22T08:36:40.187Z,37.95
2019-03-22T08:39:11.880Z,38.98
2019-03-22T08:41:43.363Z,36.85
2019-03-22T08:44:15.020Z,34.88
2019-03-22T08:46:46.625Z,32.83
2019-03-22T08:49:18.163Z,32.23
2019-03-22T08:51:49.949Z,32.83
2019-03-22T08:54:21.498Z,28.62
2019-03-22T08:56:53.015Z,33.88
2019-03-22T08:59:24.714Z,30.15
2019-03-22T09:01:56.243Z,31.27
2019-03-22T09:04:27.756Z,33.55
2019-03-22T09:06:59.280Z,30.80
2019-03-22T09:09:40.879Z,28.05
2019-03-22T09:12:04.006Z,32.70
2019-03-22T09:14:36.788Z,35.63
2019-03-22T09:17:09.116Z,31.45
2019-03-22T09:19:40.637Z,26.87
2019-03-22T09:22:12.240Z,26.33
2019-03-22T09:24:45.389Z,29.40
2019-03-22T09:27:17.041Z,30.50
2019-03-22T09:29:48.589Z,20.92
2019-03-22T09:32:30.861Z,18.87
2019-03-22T09:35:02.697Z,21.27
2019-03-22T09:37:34.252Z,31.73
2019-03-22T09:40:08.928Z,29.37
2019-03-22T09:42:40.472Z,24.50
2019-03-22T09:45:14.329Z,24.30
2019-03-22T09:47:45.235Z,31.20
2019-03-22T09:50:16.767Z,23.00
2019-03-22T09:52:48.359Z,24.43
2019-03-22T09:55:19.936Z,23.07
2019-03-22T09:57:51.552Z,21.77
2019-03-22T10:00:30.790Z,23.67
2019-03-22T10:03:02.974Z,20.00
2019-03-22T10:05:34.972Z,19.20
2019-03-22T10:08:07.559Z,17.23
2019-03-22T10:10:39.189Z,19.32
2019-03-22T10:13:10.921Z,21.35
2019-03-22T10:15:42.548Z,22.17
2019-03-22T10:18:14.078Z,28.35
2019-03-22T10:20:45.629Z,22.20
2019-03-22T10:23:17.229Z,25.92
2019-03-22T10:25:48.807Z,20.90
2019-03-22T10:28:20.284Z,26.17
2019-03-22T10:30:51.811Z,17.77
2019-03-22T10:33:23.378Z,21.30
2019-03-22T10:35:54.943Z,25.05
2019-03-22T10:38:31.881Z,22.80
2019-03-22T10:40:59.639Z,24.65
2019-03-22T10:43:31.158Z,29.77
2019-03-22T10:46:02.685Z,29.07
2019-03-22T10:48:34.266Z,26.30
2019-03-22T10:51:05.940Z,27.45
2019-03-22T10:53:37.471Z,28.52
2019-03-22T10:56:09.083Z,27.07
2019-03-22T10:58:41.683Z,26.95
2019-03-22T11:01:13.258Z,25.92
2019-03-22T11:03:44.902Z,24.75
2019-03-22T11:06:25.804Z,22.55
2019-03-22T11:08:49.863Z,26.15
2019-03-22T11:11:21.457Z,27.40
2019-03-22T11:13:53.185Z,21.85
2019-03-22T11:16:24.828Z,23.00
2019-03-22T11:18:56.354Z,26.85
2019-03-22T11:21:27.880Z,21.48
2019-03-22T11:23:59.450Z,20.45
2019-03-22T11:26:31.025Z,20.02
2019-03-22T11:29:02.528Z,19.17
2019-03-22T11:31:39.832Z,22.32
2019-03-22T11:34:08.389Z,13.65
2019-03-22T11:36:39.982Z,19.87
2019-03-22T11:39:15.713Z,28.38
2019-03-22T11:41:45.554Z,24.15
2019-03-22T11:44:17.092Z,20.75
2019-03-22T11:46:49.748Z,20.43
2019-03-22T11:49:21.284Z,17.30
2019-03-22T11:51:52.869Z,20.43
2019-03-22T11:54:24.385Z,24.23
2019-03-22T11:56:55.904Z,23.35
2019-03-22T11:59:27.420Z,25.57
2019-03-22T12:01:58.957Z,21.93
2019-03-22T12:04:30.472Z,20.37
2019-03-22T12:07:02.075Z,23.15
2019-03-22T12:09:33.582Z,26.68
2019-03-22T12:12:05.158Z,22.62
2019-03-22T12:14:36.771Z,23.20
2019-03-22T12:17:08.292Z,22.22
2019-03-22T12:19:39.810Z,22.87
2019-03-22T12:22:11.400Z,25.68
2019-03-22T12:24:42.936Z,19.55
2019-03-22T12:27:14.497Z,22.55
2019-03-22T12:29:47.830Z,20.85
2019-03-22T12:32:19.488Z,21.90
2019-03-22T12:34:51.067Z,19.37
2019-03-22T12:37:22.565Z,19.10
2019-03-22T12:39:54.097Z,19.42
2019-03-22T12:42:25.635Z,21.48
2019-03-22T12:44:57.142Z,23.50
2019-03-22T12:47:28.647Z,23.20
2019-03-22T12:50:00.362Z,23.55
2019-03-22T12:52:31.976Z,22.82
2019-03-22T12:55:05.115Z,25.27
2019-03-22T12:57:37.210Z,20.65
2019-03-22T13:00:18.809Z,23.15
2019-03-22T13:02:50.339Z,17.25
2019-03-22T13:05:21.992Z,19.10
2019-03-22T13:07:54.595Z,18.87
2019-03-22T13:10:27.723Z,26.00
2019-03-22T13:13:00.216Z,17.82
2019-03-22T13:15:31.743Z,18.55
2019-03-22T13:18:03.260Z,23.18
2019-03-22T13:20:34.788Z,19.70
2019-03-22T13:23:06.313Z,19.62
2019-03-22T13:25:37.832Z,21.82
2019-03-22T13:28:09.362Z,20.43
2019-03-22T13:30:40.950Z,19.25
2019-03-22T13:33:12.475Z,22.73
2019-03-22T13:35:43.989Z,16.93
2019-03-22T13:38:15.510Z,18.87
2019-03-22T13:40:47.032Z,19.42
2019-03-22T13:43:18.551Z,20.82
2019-03-22T13:45:50.077Z,16.42
2019-03-22T13:48:21.651Z,26.97
2019-03-22T13:50:53.226Z,17.75
2019-03-22T13:53:24.770Z,17.67
2019-03-22T13:55:56.340Z,17.50
2019-03-22T13:58:28.831Z,14.85
2019-03-22T14:01:00.406Z,18.27
2019-03-22T14:03:33.200Z,16.55
2019-03-22T14:06:04.806Z,11.08
2019-03-22T14:08:36.325Z,13.15
2019-03-22T14:11:07.851Z,16.17
2019-03-22T14:13:39.853Z,18.55
2019-03-22T14:16:11.446Z,11.25
2019-03-22T14:18:42.974Z,15.08
2019-03-22T14:21:14.557Z,12.63
2019-03-22T14:23:46.075Z,18.67
2019-03-22T14:26:17.587Z,13.15
2019-03-22T14:28:49.116Z,15.83
2019-03-22T14:31:20.648Z,15.05
2019-03-22T14:33:52.169Z,25.35
2019-03-22T14:36:23.785Z,21.37
2019-03-22T14:38:55.313Z,14.05
2019-03-22T14:41:26.902Z,15.30
2019-03-22T14:43:58.421Z,13.40
2019-03-22T14:46:29.949Z,18.37
2019-03-22T14:49:01.467Z,13.00
2019-03-22T14:51:32.991Z,39.73
2019-03-22T14:54:04.517Z,45.70
2019-03-22T14:56:36.199Z,128.15
2019-03-22T14:59:07.753Z,103.27
2019-03-22T15:01:39.276Z,63.85
2019-03-22T15:04:10.792Z,21.55
2019-03-22T15:06:42.291Z,14.23
2019-03-22T15:09:13.958Z,10.72
2019-03-22T15:11:45.492Z,10.98
2019-03-22T15:14:19.587Z,13.43
2019-03-22T15:16:52.720Z,16.23
2019-03-22T15:19:42.608Z,21.25
2019-03-22T15:22:18.557Z,18.77
2019-03-22T15:25:00.825Z,23.38
2019-03-22T15:27:33.989Z,15.98
2019-03-22T15:30:27.111Z,14.13
2019-03-22T15:33:06.258Z,13.25
2019-03-22T15:35:52.622Z,13.65
2019-03-22T15:38:25.917Z,17.87
2019-03-22T15:40:57.513Z,22.70
2019-03-22T15:43:29.038Z,23.18
2019-03-22T15:46:00.638Z,26.37
2019-03-22T15:48:32.187Z,23.25
2019-03-22T15:51:03.715Z,30.45
2019-03-22T15:53:35.265Z,26.02
2019-03-22T15:56:06.792Z,23.62
2019-03-22T15:58:38.282Z,21.93
2019-03-22T16:01:09.885Z,25.45
2019-03-22T16:03:44.365Z,62.88
2019-03-22T16:06:14.639Z,109.25
2019-03-22T16:08:46.225Z,128.02
2019-03-22T16:11:17.735Z,60.98
2019-03-22T16:13:49.321Z,61.33
2019-03-22T16:16:20.862Z,23.77
2019-03-22T16:18:52.518Z,34.00
2019-03-22T16:21:24.063Z,22.82
2019-03-22T16:23:55.562Z,28.32
2019-03-22T16:26:27.093Z,30.10
2019-03-22T16:28:58.610Z,41.73
2019-03-22T16:31:30.201Z,32.33
2019-03-22T16:34:01.725Z,36.85
2019-03-22T16:36:33.232Z,28.25
2019-03-22T16:39:08.084Z,22.22
2019-03-22T16:41:39.643Z,25.90
2019-03-22T16:44:11.217Z,28.15
2019-03-22T16:46:42.913Z,26.17
2019-03-22T16:49:14.461Z,25.10
2019-03-22T16:51:45.979Z,26.95
2019-03-22T16:54:17.570Z,38.25
2019-03-22T16:56:49.172Z,33.90
2019-03-22T16:59:20.689Z,38.55
2019-03-22T17:01:52.213Z,39.80
2019-03-22T17:04:23.742Z,32.53
2019-03-22T17:06:55.272Z,35.60
2019-03-22T17:09:26.854Z,43.52
2019-03-22T17:11:58.453Z,39.50
2019-03-22T17:14:30.044Z,49.90
2019-03-22T17:17:01.580Z,52.70
2019-03-22T17:19:33.097Z,50.63
2019-03-22T17:22:04.642Z,48.95
2019-03-22T17:24:36.183Z,59.58
2019-03-22T17:27:07.680Z,54.18
2019-03-22T17:29:39.271Z,53.48
2019-03-22T17:32:10.793Z,48.58
2019-03-22T17:34:43.379Z,46.05
2019-03-22T17:37:14.934Z,40.28
2019-03-22T17:39:46.424Z,53.92
2019-03-22T17:42:18.004Z,51.25
2019-03-22T17:44:49.555Z,51.88
2019-03-22T17:47:21.066Z,50.80
2019-03-22T17:49:52.585Z,49.93
2019-03-22T17:52:24.169Z,50.92
2019-03-22T17:54:55.699Z,43.10
2019-03-22T17:57:27.224Z,48.52
2019-03-22T17:59:58.750Z,46.10
2019-03-22T18:02:30.345Z,46.37
2019-03-22T18:05:01.851Z,42.08
2019-03-22T18:07:33.437Z,44.88
2019-03-22T18:10:10.688Z,46.40
2019-03-22T18:12:42.215Z,44.08
2019-03-22T18:15:14.384Z,52.05
2019-03-22T18:17:45.904Z,61.35
2019-03-22T18:20:17.758Z,60.83
2019-03-22T18:22:49.276Z,70.08
2019-03-22T18:25:20.871Z,79.80
2019-03-22T18:27:52.374Z,85.40
2019-03-22T18:30:23.878Z,80.05
2019-03-22T18:32:55.463Z,88.03
2019-03-22T18:35:27.134Z,87.20
2019-03-22T18:37:59.163Z,121.67
2019-03-22T18:40:30.661Z,79.05
2019-03-22T18:43:02.330Z,97.60
2019-03-22T18:45:34.030Z,108.90
2019-03-22T18:48:05.574Z,107.30
2019-03-22T18:50:37.298Z,120.30
2019-03-22T18:53:08.818Z,135.47
2019-03-22T18:55:40.338Z,193.97
2019-03-22T18:58:11.826Z,166.27
2019-03-22T19:00:43.333Z,187.20
2019-03-22T19:03:15.038Z,226.87
2019-03-22T19:05:46.630Z,223.87
2019-03-22T19:08:18.157Z,185.90
2019-03-22T19:10:49.645Z,187.53
2019-03-22T19:13:30.420Z,192.90
2019-03-22T19:15:55.421Z,203.37
2019-03-22T19:18:26.922Z,215.73
2019-03-22T19:20:58.425Z,217.70
2019-03-22T19:23:30.059Z,223.70
2019-03-22T19:26:01.805Z,203.17
2019-03-22T19:28:33.330Z,168.63
2019-03-22T19:31:04.962Z,188.43
2019-03-22T19:33:36.551Z,168.57
2019-03-22T19:36:08.138Z,168.27
2019-03-22T19:38:39.765Z,167.17
2019-03-22T19:41:12.276Z,174.00
2019-03-22T19:43:46.244Z,178.20
2019-03-22T19:46:18.682Z,178.70
2019-03-22T19:48:50.233Z,193.77
2019-03-22T19:51:21.725Z,180.60
2019-03-22T19:53:53.390Z,198.37
2019-03-22T19:56:25.001Z,188.83
2019-03-22T19:58:56.518Z,183.60
2019-03-22T20:01:28.031Z,191.60
2019-03-22T20:03:59.559Z,180.67
2019-03-22T20:06:31.071Z,178.80
2019-03-22T20:09:02.667Z,172.40
2019-03-22T20:11:35.843Z,176.27
2019-03-22T20:14:07.369Z,161.83
2019-03-22T20:16:38.905Z,183.63
2019-03-22T20:19:10.424Z,202.17
2019-03-22T20:21:41.943Z,185.57
2019-03-22T20:24:13.477Z,170.77
2019-03-22T20:26:46.086Z,164.97
2019-03-22T20:29:17.604Z,218.07
2019-03-22T20:31:49.134Z,184.03
2019-03-22T20:34:21.830Z,169.93
2019-03-22T20:36:53.426Z,148.30
2019-03-22T20:39:24.951Z,182.73
2019-03-22T20:41:56.466Z,142.47
2019-03-22T20:44:33.793Z,180.17
2019-03-22T20:47:01.261Z,169.50
2019-03-22T20:49:32.797Z,182.57
2019-03-22T20:52:04.304Z,148.93
2019-03-22T20:54:35.876Z,122.03
2019-03-22T20:57:07.409Z,172.07
2019-03-22T20:59:38.967Z,162.80
2019-03-22T21:02:10.499Z,174.43
2019-03-22T21:04:42.004Z,169.70
2019-03-22T21:07:13.522Z,168.23
2019-03-22T21:09:45.129Z,156.33
2019-03-22T21:12:16.682Z,164.83
2019-03-22T21:14:48.136Z,206.07
2019-03-22T21:17:19.713Z,274.57
2019-03-22T21:19:51.447Z,263.80
2019-03-22T21:22:23.036Z,265.83
2019-03-22T21:24:54.709Z,270.73
2019-03-22T21:27:26.292Z,252.17
2019-03-22T21:29:57.822Z,299.17
2019-03-22T21:32:29.380Z,236.10
2019-03-22T21:35:00.893Z,165.47
2019-03-22T21:37:33.471Z,117.03
2019-03-22T21:40:08.559Z,233.03
2019-03-22T21:42:40.229Z,252.13
2019-03-22T21:45:11.828Z,174.07
2019-03-22T21:47:43.341Z,182.70
2019-03-22T21:50:15.045Z,173.53
2019-03-22T21:52:46.570Z,169.20
2019-03-22T21:55:18.153Z,141.57
2019-03-22T21:57:49.752Z,126.50
2019-03-22T22:00:21.286Z,121.03
2019-03-22T22:02:52.818Z,134.90
2019-03-22T22:05:24.396Z,134.93
2019-03-22T22:07:55.968Z,122.37
2019-03-22T22:10:27.479Z,111.52
2019-03-22T22:12:59.090Z,111.03
2019-03-22T22:15:30.624Z,105.78
2019-03-22T22:18:02.156Z,108.95
2019-03-22T22:20:33.685Z,98.25
2019-03-22T22:23:05.219Z,79.50
2019-03-22T22:25:36.739Z,85.97
2019-03-22T22:28:09.422Z,79.47
2019-03-22T22:30:41.012Z,46.58
2019-03-22T22:33:12.534Z,44.73
2019-03-22T22:35:44.108Z,72.40
2019-03-22T22:38:15.616Z,90.90
2019-03-22T22:40:47.204Z,89.33
2019-03-22T22:43:18.732Z,83.03
2019-03-22T22:45:50.309Z,88.07
2019-03-22T22:48:21.824Z,95.95
2019-03-22T22:50:53.322Z,87.50
2019-03-22T22:53:24.828Z,88.17
2019-03-22T22:55:56.337Z,96.02
2019-03-22T22:58:27.895Z,84.70
2019-03-22T23:00:59.409Z,92.72
2019-03-22T23:03:32.531Z,82.65
2019-03-22T23:06:09.419Z,68.22
2019-03-22T23:08:37.515Z,91.77
2019-03-22T23:11:09.125Z,79.10
2019-03-22T23:13:40.645Z,89.87
2019-03-22T23:16:12.230Z,67.85
2019-03-22T23:18:43.815Z,75.72
2019-03-22T23:21:15.405Z,74.80
2019-03-22T23:23:46.983Z,66.75
2019-03-22T23:26:18.500Z,62.00
2019-03-22T23:28:50.225Z,59.67
2019-03-22T23:31:21.888Z,54.53
2019-03-22T23:33:53.686Z,44.93
2019-03-22T23:36:25.303Z,50.47
2019-03-22T23:38:57.181Z,48.17
2019-03-22T23:41:28.699Z,52.83
2019-03-22T23:44:00.352Z,52.27
2019-03-22T23:46:33.342Z,58.00
2019-03-22T23:49:04.866Z,61.33
2019-03-22T23:51:36.733Z,57.27
2019-03-22T23:54:08.326Z,66.57
2019-03-22T23:56:40.059Z,53.47
2019-03-22T23:59:11.613Z,68.43
